Time,TemperatureF,DewpointF,PressureIn,WindDirection,WindDirectionDegrees,WindSpeedMPH,WindSpeedGustMPH,Humidity,HourlyPrecipIn,Conditions,Clouds,dailyrainin,SoftwareType,DateUTC
2013-02-09 00:04:00,31.1,29.8,30.01,NNW,337,0.0,-999.0,95,-99.99,,,0.00,Acu-Link.com,2013-02-09 05:04:00,
2013-02-09 00:19:00,30.9,29.6,30.01,NE,45,0.0,-999.0,95,-99.99,,,0.00,Acu-Link.com,2013-02-09 05:19:00,
2013-02-09 00:34:00,30.7,29.4,30.00,NE,45,0.0,-999.0,95,-99.99,,,0.00,Acu-Link.com,2013-02-09 05:34:00,
2013-02-09 00:49:00,30.9,29.6,30.01,NE,45,0.0,-999.0,95,-99.99,,,0.00,Acu-Link.com,2013-02-09 05:49:00,
2013-02-09 01:04:00,31.1,29.8,30.01,WSW,247,1.7,-999.0,95,-99.99,,,0.00,Acu-Link.com,2013-02-09 06:04:00,
2013-02-09 01:19:00,31.3,30.0,30.02,NE,45,0.0,-999.0,95,-99.99,,,0.00,Acu-Link.com,2013-02-09 06:19:00,
2013-02-09 01:35:00,30.7,29.4,30.03,SW,225,0.0,-999.0,95,-99.99,,,0.00,Acu-Link.com,2013-02-09 06:35:00,
2013-02-09 01:50:00,30.6,29.3,30.03,West,270,0.0,-999.0,95,-99.99,,,0.00,Acu-Link.com,2013-02-09 06:50:00,
2013-02-09 02:05:00,31.5,30.2,30.03,SSE,157,3.2,-999.0,95,-99.99,,,0.00,Acu-Link.com,2013-02-09 07:05:00,
2013-02-09 02:21:00,32.7,30.6,30.03,SSW,202,0.0,-999.0,92,-99.99,,,0.00,Acu-Link.com,2013-02-09 07:21:00,
2013-02-09 02:36:00,32.7,30.1,30.04,WSW,247,0.0,-999.0,90,-99.99,,,0.00,Acu-Link.com,2013-02-09 07:36:00,
2013-02-09 02:51:00,32.4,29.5,30.04,SW,225,0.0,-999.0,89,-99.99,,,0.00,Acu-Link.com,2013-02-09 07:51:00,
2013-02-09 03:06:00,32.2,29.3,30.05,SSW,202,1.1,-999.0,89,-99.99,,,0.00,Acu-Link.com,2013-02-09 08:06:00,
2013-02-09 03:21:00,32.9,29.7,30.04,West,270,0.0,-999.0,88,-99.99,,,0.00,Acu-Link.com,2013-02-09 08:21:00,
2013-02-09 03:36:00,32.5,29.1,30.05,ENE,67,0.0,-999.0,87,-99.99,,,0.00,Acu-Link.com,2013-02-09 08:36:00,
2013-02-09 03:51:00,31.1,28.0,30.04,North,0,0.0,-999.0,88,-99.99,,,0.00,Acu-Link.com,2013-02-09 08:51:00,
2013-02-09 04:07:00,30.0,26.9,30.05,West,270,0.0,-999.0,88,-99.99,,,0.00,Acu-Link.com,2013-02-09 09:07:00,
2013-02-09 04:22:00,29.3,26.7,30.05,ESE,112,0.0,-999.0,90,-99.99,,,0.00,Acu-Link.com,2013-02-09 09:22:00,
2013-02-09 04:37:00,28.8,26.5,30.06,West,270,0.0,-999.0,91,-99.99,,,0.00,Acu-Link.com,2013-02-09 09:37:00,
2013-02-09 04:52:00,28.8,26.8,30.07,NE,45,1.7,-999.0,92,-99.99,,,0.00,Acu-Link.com,2013-02-09 09:52:00,
2013-02-09 05:07:00,28.6,26.6,30.08,NE,45,0.0,-999.0,92,-99.99,,,0.00,Acu-Link.com,2013-02-09 10:07:00,
2013-02-09 05:23:00,28.0,26.0,30.08,ENE,67,0.0,-999.0,92,-99.99,,,0.00,Acu-Link.com,2013-02-09 10:23:00,
2013-02-09 05:38:00,27.5,25.5,30.09,West,270,0.0,-999.0,92,-99.99,,,0.00,Acu-Link.com,2013-02-09 10:38:00,
2013-02-09 05:53:00,27.1,25.1,30.10,WSW,247,0.0,-999.0,92,-99.99,,,0.00,Acu-Link.com,2013-02-09 10:53:00,
2013-02-09 06:08:00,27.0,25.0,30.10,ESE,112,0.0,-999.0,92,-99.99,,,0.00,Acu-Link.com,2013-02-09 11:08:00,
2013-02-09 06:23:00,26.2,24.2,30.12,ESE,112,0.0,-999.0,92,-99.99,,,0.00,Acu-Link.com,2013-02-09 11:23:00,
2013-02-09 06:38:00,26.2,24.5,30.12,South,180,0.0,-999.0,93,-99.99,,,0.00,Acu-Link.com,2013-02-09 11:38:00,
2013-02-09 06:53:00,25.7,24.0,30.13,WNW,292,0.0,-999.0,93,-99.99,,,0.00,Acu-Link.com,2013-02-09 11:53:00,
2013-02-09 07:09:00,25.5,23.8,30.12,ENE,67,0.0,-999.0,93,-99.99,,,0.00,Acu-Link.com,2013-02-09 12:09:00,
2013-02-09 07:24:00,25.2,23.7,30.13,ESE,112,0.0,-999.0,94,-99.99,,,0.00,Acu-Link.com,2013-02-09 12:24:00,
2013-02-09 07:39:00,25.2,23.7,30.14,ENE,67,0.0,-999.0,94,-99.99,,,0.00,Acu-Link.com,2013-02-09 12:39:00,
2013-02-09 07:54:00,25.3,23.8,30.15,East,90,0.0,-999.0,94,-99.99,,,0.00,Acu-Link.com,2013-02-09 12:54:00,
2013-02-09 08:09:00,30.6,29.6,30.16,SE,135,0.0,-999.0,96,-99.99,,,0.00,Acu-Link.com,2013-02-09 13:09:00,
2013-02-09 08:24:00,35.8,34.5,30.16,ESE,112,0.0,-999.0,95,-99.99,,,0.00,Acu-Link.com,2013-02-09 13:24:00,
2013-02-09 08:39:00,40.5,36.9,30.17,ESE,112,1.7,-999.0,87,-99.99,,,0.00,Acu-Link.com,2013-02-09 13:39:00,
2013-02-09 08:54:00,43.9,38.8,30.17,ESE,112,1.1,-999.0,82,-99.99,,,0.00,Acu-Link.com,2013-02-09 13:54:00,
2013-02-09 09:10:00,41.0,35.6,30.18,ESE,112,2.2,-999.0,81,-99.99,,,0.00,Acu-Link.com,2013-02-09 14:10:00,
2013-02-09 09:25:00,44.1,37.4,30.18,East,90,2.2,-999.0,77,-99.99,,,0.00,Acu-Link.com,2013-02-09 14:25:00,
2013-02-09 09:40:00,48.2,35.4,30.18,SW,225,2.7,-999.0,61,-99.99,,,0.00,Acu-Link.com,2013-02-09 14:40:00,
2013-02-09 09:55:00,49.1,31.3,30.18,SW,225,2.7,-999.0,50,-99.99,,,0.00,Acu-Link.com,2013-02-09 14:55:00,
2013-02-09 10:10:00,51.4,30.2,30.18,South,180,2.2,-999.0,44,-99.99,,,0.00,Acu-Link.com,2013-02-09 15:10:00,
2013-02-09 10:25:00,53.4,33.7,30.19,ENE,67,1.7,-999.0,47,-99.99,,,0.00,Acu-Link.com,2013-02-09 15:25:00,
2013-02-09 10:40:00,53.4,30.3,30.19,WSW,247,2.7,-999.0,41,-99.99,,,0.00,Acu-Link.com,2013-02-09 15:40:00,
2013-02-09 10:56:00,56.7,33.9,30.19,North,0,0.0,-999.0,42,-99.99,,,0.00,Acu-Link.com,2013-02-09 15:56:00,
2013-02-09 11:11:00,55.6,29.1,30.19,WSW,247,2.7,-999.0,36,-99.99,,,0.00,Acu-Link.com,2013-02-09 16:11:00,
2013-02-09 11:26:00,55.9,28.7,30.19,West,270,0.0,-999.0,35,-99.99,,,0.00,Acu-Link.com,2013-02-09 16:26:00,
2013-02-09 11:41:00,59.0,30.7,30.20,WSW,247,0.0,-999.0,34,-99.99,,,0.00,Acu-Link.com,2013-02-09 16:41:00,
2013-02-09 11:56:00,58.8,30.5,30.19,SW,225,2.2,-999.0,34,-99.99,,,0.00,Acu-Link.com,2013-02-09 16:56:00,
2013-02-09 12:11:00,60.4,31.9,30.20,WSW,247,0.0,-999.0,34,-99.99,,,0.00,Acu-Link.com,2013-02-09 17:11:00,
2013-02-09 12:26:00,59.7,27.4,30.19,ESE,112,4.7,-999.0,29,-99.99,,,0.00,Acu-Link.com,2013-02-09 17:26:00,
2013-02-09 12:42:00,60.1,29.4,30.19,ESE,112,1.7,-999.0,31,-99.99,,,0.00,Acu-Link.com,2013-02-09 17:42:00,
2013-02-09 12:57:00,61.3,29.6,30.17,ENE,67,2.2,-999.0,30,-99.99,,,0.00,Acu-Link.com,2013-02-09 17:57:00,
2013-02-09 13:12:00,61.7,25.5,30.17,WSW,247,2.2,-999.0,25,-99.99,,,0.00,Acu-Link.com,2013-02-09 18:12:00,
2013-02-09 13:27:00,61.3,25.2,30.17,WSW,247,2.7,-999.0,25,-99.99,,,0.00,Acu-Link.com,2013-02-09 18:27:00,
2013-02-09 13:42:00,62.2,26.9,30.17,ESE,112,3.7,-999.0,26,-99.99,,,0.00,Acu-Link.com,2013-02-09 18:42:00,
2013-02-09 13:57:00,62.4,26.1,30.16,ESE,112,2.2,-999.0,25,-99.99,,,0.00,Acu-Link.com,2013-02-09 18:57:00,
2013-02-09 14:12:00,63.1,24.7,30.15,WNW,292,2.7,-999.0,23,-99.99,,,0.00,Acu-Link.com,2013-02-09 19:12:00,
2013-02-09 14:27:00,62.1,26.8,30.14,SSW,202,1.7,-999.0,26,-99.99,,,0.00,Acu-Link.com,2013-02-09 19:27:00,
2013-02-09 14:42:00,61.3,29.6,30.14,South,180,0.0,-999.0,30,-99.99,,,0.00,Acu-Link.com,2013-02-09 19:42:00,
2013-02-09 14:58:00,60.4,27.2,30.13,NE,45,2.2,-999.0,28,-99.99,,,0.00,Acu-Link.com,2013-02-09 19:58:00,
2013-02-09 15:13:00,61.0,28.5,30.13,NE,45,2.2,-999.0,29,-99.99,,,0.00,Acu-Link.com,2013-02-09 20:13:00,
2013-02-09 15:28:00,61.5,30.6,30.12,West,270,0.0,-999.0,31,-99.99,,,0.00,Acu-Link.com,2013-02-09 20:28:00,
2013-02-09 15:43:00,59.9,30.7,30.13,West,270,1.1,-999.0,33,-99.99,,,0.00,Acu-Link.com,2013-02-09 20:43:00,
2013-02-09 15:58:00,59.4,31.0,30.13,WSW,247,0.0,-999.0,34,-99.99,,,0.00,Acu-Link.com,2013-02-09 20:58:00,
2013-02-09 16:13:00,58.5,30.9,30.13,NE,45,0.0,-999.0,35,-99.99,,,0.00,Acu-Link.com,2013-02-09 21:13:00,
2013-02-09 16:28:00,57.4,30.7,30.13,WNW,292,0.0,-999.0,36,-99.99,,,0.00,Acu-Link.com,2013-02-09 21:28:00,
2013-02-09 16:43:00,57.0,31.0,30.13,ENE,67,0.0,-999.0,37,-99.99,,,0.00,Acu-Link.com,2013-02-09 21:43:00,
2013-02-09 16:58:00,55.9,30.7,30.13,NW,315,0.0,-999.0,38,-99.99,,,0.00,Acu-Link.com,2013-02-09 21:58:00,
2013-02-09 17:13:00,54.7,30.2,30.12,NNW,337,0.0,-999.0,39,-99.99,,,0.00,Acu-Link.com,2013-02-09 22:13:00,
2013-02-09 17:29:00,54.1,31.5,30.13,NW,315,0.0,-999.0,42,-99.99,,,0.00,Acu-Link.com,2013-02-09 22:29:00,
2013-02-09 17:44:00,53.4,31.5,30.13,NNE,22,0.0,-999.0,43,-99.99,,,0.00,Acu-Link.com,2013-02-09 22:44:00,
2013-02-09 17:59:00,51.6,32.0,30.13,NNE,22,0.0,-999.0,47,-99.99,,,0.00,Acu-Link.com,2013-02-09 22:59:00,
2013-02-09 18:14:00,49.3,33.4,30.15,NNE,22,0.0,-999.0,54,-99.99,,,0.00,Acu-Link.com,2013-02-09 23:14:00,
2013-02-09 18:29:00,46.8,33.7,30.15,NNE,22,0.0,-999.0,60,-99.99,,,0.00,Acu-Link.com,2013-02-09 23:29:00,
2013-02-09 18:44:00,45.3,34.2,30.16,NNE,22,0.0,-999.0,65,-99.99,,,0.00,Acu-Link.com,2013-02-09 23:44:00,
2013-02-09 19:00:00,44.2,34.3,30.16,NNE,22,0.0,-999.0,68,-99.99,,,0.00,Acu-Link.com,2013-02-10 00:00:00,
2013-02-09 19:15:00,43.5,34.7,30.17,NNE,22,0.0,-999.0,71,-99.99,,,0.00,Acu-Link.com,2013-02-10 00:15:00,
2013-02-09 19:30:00,42.8,34.4,30.17,NNE,22,0.0,-999.0,72,-99.99,,,0.00,Acu-Link.com,2013-02-10 00:30:00,
2013-02-09 19:45:00,41.9,34.2,30.17,NNE,22,0.0,-999.0,74,-99.99,,,0.00,Acu-Link.com,2013-02-10 00:45:00,
2013-02-09 20:00:00,40.8,33.8,30.18,NNE,22,0.0,-999.0,76,-99.99,,,0.00,Acu-Link.com,2013-02-10 01:00:00,
2013-02-09 20:16:00,39.7,33.1,30.19,NNE,22,0.0,-999.0,77,-99.99,,,0.00,Acu-Link.com,2013-02-10 01:16:00,
2013-02-09 20:31:00,38.3,32.1,30.19,NNE,22,0.0,-999.0,78,-99.99,,,0.00,Acu-Link.com,2013-02-10 01:31:00,
2013-02-09 20:46:00,37.2,31.9,30.19,NNE,22,0.0,-999.0,81,-99.99,,,0.00,Acu-Link.com,2013-02-10 01:46:00,
2013-02-09 21:01:00,36.5,31.5,30.20,NNE,22,0.0,-999.0,82,-99.99,,,0.00,Acu-Link.com,2013-02-10 02:01:00,
2013-02-09 21:16:00,35.8,31.2,30.20,NNE,22,0.0,-999.0,83,-99.99,,,0.00,Acu-Link.com,2013-02-10 02:16:00,
2013-02-09 21:32:00,35.1,31.1,30.19,NNE,22,0.0,-999.0,85,-99.99,,,0.00,Acu-Link.com,2013-02-10 02:32:00,
2013-02-09 21:47:00,34.7,30.9,30.20,NNE,22,0.0,-999.0,86,-99.99,,,0.00,Acu-Link.com,2013-02-10 02:47:00,
2013-02-09 22:02:00,34.7,31.2,30.20,NNE,22,0.0,-999.0,87,-99.99,,,0.00,Acu-Link.com,2013-02-10 03:02:00,
2013-02-09 22:17:00,34.3,31.1,30.19,NNE,22,0.0,-999.0,88,-99.99,,,0.00,Acu-Link.com,2013-02-10 03:17:00,
2013-02-09 22:33:00,33.8,30.9,30.19,NNE,22,0.0,-999.0,89,-99.99,,,0.00,Acu-Link.com,2013-02-10 03:33:00,
2013-02-09 22:48:00,33.4,30.5,30.19,NNE,22,0.0,-999.0,89,-99.99,,,0.00,Acu-Link.com,2013-02-10 03:48:00,
2013-02-09 23:03:00,32.7,29.8,30.19,NNE,22,0.0,-999.0,89,-99.99,,,0.00,Acu-Link.com,2013-02-10 04:03:00,
2013-02-09 23:18:00,32.4,30.1,30.21,NNE,22,0.0,-999.0,91,-99.99,,,0.00,Acu-Link.com,2013-02-10 04:18:00,
2013-02-09 23:33:00,32.0,29.7,30.21,NNE,22,0.0,-999.0,91,-99.99,,,0.00,Acu-Link.com,2013-02-10 04:33:00,
2013-02-09 23:48:00,31.6,29.3,30.21,NNE,22,0.0,-999.0,91,-99.99,,,0.00,Acu-Link.com,2013-02-10 04:48:00,